Time;durP1;ratioP1;P1;durP2;ratioP2;P2;SDS_P1;SDS_P2;PMS_P1;PMS_P2;Temp;Humidity;BMP_temperature;BMP_pressure;BME280_temperature;BME280_humidity;BME280_pressure;Samples;Min_cycle;Max_cycle;Signal;HPM_P1;HPM_P2
2021/11/06 00:00:40;;;;;;;18.67;12.17;;;;;;;7.49;74.48;99747.87;2100121;85;21024;-82
2021/11/06 00:03:43;;;;;;;22.53;14.27;;;;;;;7.27;74.86;99751.34;2087034;85;20987;-81
2021/11/06 00:06:44;;;;;;;16.93;12.40;;;;;;;7.17;75.31;99750.52;2099594;84;21487;-79
2021/11/06 00:09:45;;;;;;;19.63;12.47;;;;;;;6.93;76.04;99755.58;2100329;85;21079;-80
2021/11/06 00:12:48;;;;;;;20.40;13.07;;;;;;;6.93;76.04;99755.58;2106152;85;21032;-77
2021/11/06 00:15:48;;;;;;;16.50;11.27;;;;;;;6.79;76.61;99758.44;2106104;85;21495;-80
2021/11/06 00:18:49;;;;;;;14.00;11.63;;;;;;;6.79;76.61;99758.44;2105959;85;21047;-79
2021/11/06 00:21:49;;;;;;;23.50;14.37;;;;;;;6.72;77.34;99762.48;2106576;85;21380;-79
2021/11/06 00:24:50;;;;;;;18.63;14.13;;;;;;;6.68;77.42;99760.17;2106258;84;21019;-80
2021/11/06 00:27:50;;;;;;;23.80;14.23;;;;;;;6.68;77.55;99770.95;2105200;84;21043;-78
2021/11/06 00:30:51;;;;;;;26.40;15.37;;;;;;;6.63;77.92;99781.14;2105871;84;20944;-79
2021/11/06 00:33:52;;;;;;;26.50;17.27;;;;;;;6.59;78.38;99779.66;2105636;85;20933;-79
2021/11/06 00:36:52;;;;;;;23.17;16.13;;;;;;;6.52;79.20;99786.70;2105906;85;21343;-80
2021/11/06 00:39:52;;;;;;;28.83;17.57;;;;;;;6.47;78.74;99780.43;2105646;84;21406;-78
2021/11/06 00:42:53;;;;;;;24.60;15.60;;;;;;;6.46;78.90;99788.63;2106507;85;21101;-80
2021/11/06 00:45:53;;;;;;;19.77;13.10;;;;;;;6.47;79.19;99783.91;2106736;84;20968;-79
2021/11/06 00:48:54;;;;;;;17.30;12.97;;;;;;;6.49;79.28;99787.87;2106775;84;20965;-79
2021/11/06 00:51:54;;;;;;;22.87;14.30;;;;;;;6.50;79.10;99787.93;2106517;84;21366;-78
2021/11/06 00:54:55;;;;;;;16.97;12.33;;;;;;;6.51;79.23;99781.04;2106425;85;20983;-79
2021/11/06 00:57:56;;;;;;;18.10;12.70;;;;;;;6.54;79.40;99783.77;2106637;85;20980;-79
2021/11/06 01:00:56;;;;;;;17.47;12.97;;;;;;;6.53;79.35;99788.06;2106484;85;21368;-80
2021/11/06 01:03:58;;;;;;;16.83;13.67;;;;;;;6.50;79.19;99783.16;2106883;85;21351;-79
2021/11/06 01:06:58;;;;;;;21.73;14.40;;;;;;;6.45;79.33;99779.06;2105900;85;21044;-79
2021/11/06 01:09:59;;;;;;;19.83;13.37;;;;;;;6.49;79.19;99777.08;2105517;84;21047;-81
2021/11/06 01:12:59;;;;;;;18.03;11.77;;;;;;;6.53;79.25;99780.28;2099803;85;21012;-79
2021/11/06 01:16:00;;;;;;;16.13;12.67;;;;;;;6.52;79.45;99781.52;2099465;84;20961;-79
2021/11/06 01:19:01;;;;;;;14.03;11.53;;;;;;;6.48;79.13;99777.02;2099764;84;21056;-80
2021/11/06 01:22:02;;;;;;;17.73;11.70;;;;;;;6.51;79.13;99777.15;2099956;85;21036;-80
2021/11/06 01:25:03;;;;;;;15.90;11.73;;;;;;;6.50;79.29;99779.27;2099952;85;21012;-83
2021/11/06 01:28:03;;;;;;;15.20;11.43;;;;;;;6.47;79.48;99782.61;2099885;85;21070;-81
2021/11/06 01:31:05;;;;;;;16.07;13.20;;;;;;;6.44;79.41;99773.41;2099868;84;20992;-80
2021/11/06 01:34:06;;;;;;;21.43;12.50;;;;;;;6.45;79.29;99774.29;2099648;85;21034;-80
2021/11/06 01:37:06;;;;;;;15.67;11.37;;;;;;;6.39;79.21;99769.73;2100011;85;20984;-80
2021/11/06 01:40:07;;;;;;;13.20;10.57;;;;;;;6.31;79.20;99770.70;2099838;84;21007;-80
2021/11/06 01:43:07;;;;;;;16.70;12.57;;;;;;;6.24;79.51;99778.14;2099684;84;21052;-80
2021/11/06 01:46:08;;;;;;;15.90;12.53;;;;;;;6.15;79.36;99782.52;2099761;84;20937;-81
2021/11/06 01:49:08;;;;;;;16.60;12.77;;;;;;;6.11;79.42;99778.02;2099353;84;21035;-79
2021/11/06 01:52:09;;;;;;;17.97;13.20;;;;;;;6.05;79.58;99773.82;2099737;85;20988;-80
2021/11/06 01:55:09;;;;;;;16.07;12.07;;;;;;;6.03;79.74;99771.56;2099521;84;21015;-81
2021/11/06 02:01:14;;;;;;;44.48;30.20;;;;;;;5.93;79.80;99778.45;2051317;85;21004;-79
2021/11/06 02:04:15;;;;;;;103.67;74.03;;;;;;;6.01;83.49;99782.28;2099991;85;20952;-78
2021/11/06 02:07:15;;;;;;;42.63;30.10;;;;;;;7.78;88.79;99777.97;2099635;85;21039;-78
2021/11/06 02:10:16;;;;;;;20.80;14.70;;;;;;;7.67;77.89;99769.36;2100610;84;21027;-82
2021/11/06 02:13:16;;;;;;;19.83;13.70;;;;;;;7.13;77.34;99773.70;2106612;85;20983;-81
2021/11/06 02:19:19;;;;;;;18.70;12.17;;;;;;;6.52;78.56;99775.03;2071165;85;21468;-80
2021/11/06 02:22:20;;;;;;;13.33;10.53;;;;;;;6.35;79.05;99776.48;2106312;84;21074;-81
2021/11/06 02:25:20;;;;;;;17.03;13.13;;;;;;;6.26;79.36;99774.80;2106576;84;20956;-79
2021/11/06 02:28:21;;;;;;;17.60;11.87;;;;;;;6.19;79.30;99776.64;2106653;85;21331;-79
2021/11/06 02:31:21;;;;;;;16.73;11.70;;;;;;;6.10;79.74;99770.17;2106626;84;20952;-79
2021/11/06 02:34:22;;;;;;;14.60;11.90;;;;;;;6.05;79.80;99769.93;2106291;85;20967;-79
2021/11/06 02:37:22;;;;;;;17.07;11.47;;;;;;;6.02;79.75;99766.80;2106249;85;21035;-79
2021/11/06 02:40:23;;;;;;;13.83;10.97;;;;;;;6.00;79.93;99770.14;2106003;85;21007;-80
2021/11/06 02:43:24;;;;;;;15.97;12.13;;;;;;;5.97;79.89;99773.89;2106620;85;20967;-80
2021/11/06 02:46:24;;;;;;;20.13;12.20;;;;;;;6.00;80.11;99771.44;2106843;85;20971;-80
2021/11/06 02:49:25;;;;;;;18.27;11.27;;;;;;;6.03;79.97;99774.16;2106779;85;21323;-79
2021/11/06 02:52:25;;;;;;;17.33;12.03;;;;;;;6.03;79.86;99775.45;2106580;84;21063;-80
2021/11/06 02:55:26;;;;;;;17.63;12.40;;;;;;;6.03;80.24;99775.45;2106740;84;20999;-80
2021/11/06 02:58:27;;;;;;;14.43;12.07;;;;;;;6.03;80.07;99773.75;2106871;84;21007;-80
2021/11/06 03:01:28;;;;;;;15.73;11.93;;;;;;;6.02;79.97;99773.27;2106364;85;21003;-81
2021/11/06 03:04:28;;;;;;;14.17;9.80;;;;;;;6.08;80.05;99775.28;2106135;84;20995;-81
2021/11/06 03:07:29;;;;;;;11.37;10.10;;;;;;;6.11;80.23;99785.79;2105718;84;20984;-80
2021/11/06 03:10:29;;;;;;;14.77;10.23;;;;;;;6.12;80.01;99784.97;2105278;84;21419;-81
2021/11/06 03:13:30;;;;;;;15.87;10.37;;;;;;;6.17;80.07;99785.17;2099203;85;21325;-81
2021/11/06 03:16:30;;;;;;;14.20;9.87;;;;;;;6.17;79.91;99786.06;2099382;84;21022;-79
2021/11/06 03:19:31;;;;;;;14.60;9.73;;;;;;;6.13;79.66;99793.63;2099279;85;21003;-80
2021/11/06 03:22:31;;;;;;;13.70;9.67;;;;;;;6.09;79.70;99790.42;2099372;84;21023;-79
2021/11/06 03:25:32;;;;;;;15.83;10.43;;;;;;;6.03;79.40;99799.67;2099299;84;20956;-79
2021/11/06 03:28:32;;;;;;;14.70;10.60;;;;;;;5.96;79.38;99800.63;2099708;85;21023;-81
2021/11/06 03:31:33;;;;;;;14.70;9.83;;;;;;;5.94;79.50;99797.08;2099459;84;20965;-79
2021/11/06 03:34:33;;;;;;;16.03;10.10;;;;;;;5.90;79.57;99796.45;2099826;85;21441;-79
2021/11/06 03:37:34;;;;;;;16.93;10.77;;;;;;;5.91;79.48;99804.30;2099819;84;21063;-79
2021/11/06 03:40:34;;;;;;;17.77;10.73;;;;;;;5.95;79.51;99811.39;2099663;85;20949;-80
2021/11/06 03:43:35;;;;;;;12.23;9.83;;;;;;;5.97;79.63;99811.05;2099731;84;20956;-80
2021/11/06 03:46:35;;;;;;;12.53;9.27;;;;;;;6.00;79.55;99812.90;2099111;84;21024;-81
2021/11/06 03:49:36;;;;;;;12.47;10.00;;;;;;;6.00;79.59;99812.90;2099766;85;21016;-80
2021/11/06 03:52:36;;;;;;;15.07;9.67;;;;;;;5.95;79.23;99816.98;2100010;85;21016;-80
2021/11/06 03:55:37;;;;;;;99.50;70.97;;;;;;;5.87;79.30;99824.38;2100340;85;21355;-81
2021/11/06 03:58:37;;;;;;;76.83;54.13;;;;;;;7.09;90.15;99821.13;2100210;85;21008;-79
2021/11/06 04:01:38;;;;;;;24.83;16.83;;;;;;;8.61;85.40;99815.31;2099541;85;20984;-79
2021/11/06 04:04:38;;;;;;;14.93;11.33;;;;;;;8.39;76.89;99817.99;2099080;85;21027;-81
2021/11/06 04:07:39;;;;;;;11.47;9.93;;;;;;;7.79;75.27;99809.63;2099607;84;21015;-78
2021/11/06 04:10:39;;;;;;;14.30;9.37;;;;;;;7.24;75.39;99817.45;2099712;85;20971;-79
2021/11/06 04:13:40;;;;;;;13.90;10.93;;;;;;;6.91;75.98;99816.03;2099197;85;21071;-79
2021/11/06 04:16:40;;;;;;;14.67;11.13;;;;;;;6.73;76.50;99820.04;2099757;84;20988;-80
2021/11/06 04:19:41;;;;;;;13.87;10.23;;;;;;;6.62;76.89;99816.11;2099327;84;21096;-80
2021/11/06 04:22:41;;;;;;;15.13;10.93;;;;;;;6.55;77.11;99819.26;2099208;84;20976;-79
2021/11/06 04:25:42;;;;;;;14.73;10.70;;;;;;;6.46;77.14;99824.05;2098971;84;20975;-79
2021/11/06 04:28:43;;;;;;;17.73;11.80;;;;;;;6.39;77.37;99829.38;2099572;84;21392;-79
2021/11/06 04:31:43;;;;;;;14.80;11.23;;;;;;;6.37;77.64;99829.72;2099397;85;21354;-79
2021/11/06 04:34:44;;;;;;;17.10;11.53;;;;;;;6.34;77.69;99834.36;2099123;84;21095;-79
2021/11/06 04:37:44;;;;;;;14.90;10.80;;;;;;;6.29;77.77;99839.75;2099558;84;20976;-80
2021/11/06 04:40:45;;;;;;;17.60;11.70;;;;;;;6.24;77.89;99838.66;2099818;84;21395;-79
2021/11/06 04:43:45;;;;;;;16.07;11.70;;;;;;;6.23;77.98;99839.89;2099692;85;21320;-78
2021/11/06 04:46:46;;;;;;;16.30;12.50;;;;;;;6.25;78.07;99840.84;2099925;84;20933;-79
2021/11/06 04:49:47;;;;;;;15.60;13.13;;;;;;;6.19;78.06;99850.53;2099790;84;20952;-80
2021/11/06 04:52:47;;;;;;;19.37;13.70;;;;;;;6.17;78.16;99852.17;2099906;84;21012;-80
2021/11/06 04:55:48;;;;;;;216.93;149.13;;;;;;;6.17;78.22;99856.05;2099231;84;21039;-79
2021/11/06 04:58:48;;;;;;;400.03;285.83;;;;;;;6.41;84.85;99857.97;2099072;85;20987;-79
2021/11/06 05:01:49;;;;;;;84.43;60.03;;;;;;;9.62;91.47;99847.38;2099761;84;20951;-78
2021/11/06 05:04:49;;;;;;;26.43;20.03;;;;;;;10.63;74.09;99856.53;2099465;85;21424;-78
2021/11/06 05:07:50;;;;;;;17.07;12.97;;;;;;;9.64;71.93;99850.92;2099740;84;21388;-78
2021/11/06 05:10:51;;;;;;;17.57;12.07;;;;;;;8.70;71.40;99857.73;2097292;84;20952;-78
2021/11/06 05:13:51;;;;;;;12.67;11.10;;;;;;;8.05;72.25;99866.55;2055391;87;20940;-79
2021/11/06 05:16:52;;;;;;;22.63;16.57;;;;;;;7.63;73.21;99864.91;2055699;87;21022;-79
2021/11/06 05:19:52;;;;;;;213.13;147.93;;;;;;;7.40;74.73;99872.61;2055826;87;20979;-79
2021/11/06 05:22:53;;;;;;;131.13;95.30;;;;;;;9.26;81.15;99864.87;2055572;87;20983;-80
2021/11/06 05:25:53;;;;;;;102.33;71.93;;;;;;;11.54;76.28;99864.59;2055997;87;20960;-79
2021/11/06 05:28:54;;;;;;;50.73;38.10;;;;;;;11.64;71.84;99866.58;2055355;87;21343;-78
2021/11/06 05:31:54;;;;;;;44.00;31.40;;;;;;;11.46;69.90;99877.05;2055172;87;20956;-79
2021/11/06 05:34:55;;;;;;;51.90;33.50;;;;;;;10.92;69.33;99867.34;2056100;87;21035;-79
2021/11/06 05:37:55;;;;;;;43.43;32.37;;;;;;;10.72;70.18;99875.95;2056038;87;20995;-79
2021/11/06 05:40:56;;;;;;;166.47;120.17;;;;;;;10.50;68.97;99874.89;2056863;87;21337;-80
2021/11/06 05:43:56;;;;;;;33.20;25.60;;;;;;;11.94;73.48;99879.09;2056349;87;20979;-78
2021/11/06 05:46:56;;;;;;;34.60;26.03;;;;;;;13.25;67.22;99875.28;2056022;87;21368;-80
2021/11/06 05:49:57;;;;;;;18.80;15.87;;;;;;;12.55;64.14;99880.44;2055797;87;20976;-79
2021/11/06 05:52:57;;;;;;;15.13;12.23;;;;;;;11.79;64.80;99884.86;2055583;87;21043;-80
2021/11/06 05:55:58;;;;;;;15.00;12.40;;;;;;;11.22;63.87;99891.20;2055482;87;20995;-80
2021/11/06 05:58:58;;;;;;;13.93;11.70;;;;;;;10.24;63.78;99895.40;2055819;87;21422;-81
2021/11/06 06:01:59;;;;;;;14.10;11.00;;;;;;;9.33;64.72;99896.81;2056207;87;21047;-80
2021/11/06 06:05:00;;;;;;;15.90;11.23;;;;;;;8.62;65.89;99905.58;2055493;87;21046;-80
2021/11/06 06:08:00;;;;;;;14.77;11.50;;;;;;;8.05;67.00;99902.95;2055190;87;20987;-78
2021/11/06 06:11:01;;;;;;;14.83;12.00;;;;;;;7.64;68.04;99911.27;2055960;85;20963;-78
2021/11/06 06:14:01;;;;;;;12.60;11.30;;;;;;;7.29;68.87;99919.81;2099467;84;20976;-78
2021/11/06 06:17:02;;;;;;;16.87;12.40;;;;;;;6.97;69.70;99915.84;2099750;85;21394;-80
2021/11/06 06:20:02;;;;;;;15.93;11.10;;;;;;;6.76;70.52;99922.67;2099310;84;21047;-78
2021/11/06 06:23:04;;;;;;;15.20;12.27;;;;;;;6.60;71.07;99924.11;2100121;84;21015;-79
2021/11/06 06:26:04;;;;;;;14.13;11.50;;;;;;;6.51;71.74;99928.48;2099309;84;21012;-82
2021/11/06 06:29:05;;;;;;;19.13;12.43;;;;;;;6.39;71.93;99927.52;2099862;85;21092;-79
2021/11/06 06:32:05;;;;;;;14.10;12.20;;;;;;;6.36;72.48;99926.08;2100012;84;20965;-79
2021/11/06 06:35:06;;;;;;;15.37;11.70;;;;;;;6.33;72.67;99927.64;2099579;84;21443;-79
2021/11/06 06:38:06;;;;;;;15.27;12.43;;;;;;;6.30;72.99;99929.69;2098249;84;21030;-79
2021/11/06 06:41:07;;;;;;;13.87;11.50;;;;;;;6.32;73.38;99925.87;2098523;84;20960;-81
2021/11/06 06:44:07;;;;;;;18.70;11.57;;;;;;;6.28;73.50;99928.73;2099209;85;20972;-80
2021/11/06 06:47:08;;;;;;;15.87;11.70;;;;;;;6.29;73.57;99934.80;2099403;84;21028;-79
2021/11/06 06:50:08;;;;;;;14.77;11.17;;;;;;;6.34;73.83;99938.49;2099858;84;20976;-80
2021/11/06 06:53:09;;;;;;;14.17;11.20;;;;;;;6.39;73.90;99944.38;2100032;85;21507;-79
2021/11/06 06:56:09;;;;;;;14.20;10.30;;;;;;;6.48;73.96;99945.61;2099766;85;21359;-79
2021/11/06 06:59:10;;;;;;;13.67;10.20;;;;;;;6.56;74.10;99945.55;2099517;85;21636;-80
2021/11/06 07:02:11;;;;;;;14.00;10.83;;;;;;;6.65;73.90;99948.55;2098934;85;21007;-78
2021/11/06 07:05:12;;;;;;;16.50;10.47;;;;;;;6.75;73.80;99952.03;2099335;84;21052;-79
2021/11/06 07:08:12;;;;;;;13.83;9.43;;;;;;;6.88;73.84;99948.27;2099747;85;21000;-79
2021/11/06 07:14:16;;;;;;;11.83;10.37;;;;;;;7.15;73.34;99958.59;2076244;85;21001;-79
2021/11/06 07:17:16;;;;;;;11.73;9.00;;;;;;;7.22;72.93;99961.03;2100108;85;21328;-79
2021/11/06 07:20:19;;;;;;;12.23;10.20;;;;;;;7.38;72.46;99958.27;2099894;84;21095;-79
2021/11/06 07:23:19;;;;;;;11.47;9.07;;;;;;;7.54;72.15;99961.98;2099941;84;21253;-79
2021/11/06 07:26:20;;;;;;;12.73;9.63;;;;;;;7.70;71.61;99960.89;2100175;84;20976;-79
2021/11/06 07:29:21;;;;;;;12.13;9.93;;;;;;;7.80;71.79;99959.17;2099345;84;20972;-79
2021/11/06 07:32:21;;;;;;;9.17;8.23;;;;;;;7.87;71.48;99964.21;2099334;85;20968;-80
2021/11/06 07:35:22;;;;;;;13.33;9.40;;;;;;;7.95;70.81;99966.70;2098882;85;21023;-79
2021/11/06 07:38:22;;;;;;;11.47;10.20;;;;;;;7.99;71.00;99972.09;2099073;85;21011;-79
2021/11/06 07:41:23;;;;;;;10.87;9.30;;;;;;;8.02;70.89;99966.12;2099329;85;20964;-80
2021/11/06 07:44:23;;;;;;;13.00;9.53;;;;;;;8.08;70.76;99976.77;2098951;84;20991;-81
2021/11/06 07:47:24;;;;;;;10.50;9.10;;;;;;;8.10;70.20;99968.61;2099924;84;21336;-80
2021/11/06 07:50:24;;;;;;;11.37;9.20;;;;;;;8.15;70.51;99966.19;2100235;84;21060;-79
2021/11/06 07:53:25;;;;;;;12.03;9.50;;;;;;;8.27;70.32;99971.88;2100057;85;21428;-79
2021/11/06 07:56:25;;;;;;;11.43;9.40;;;;;;;8.29;69.50;99962.00;2099986;84;20967;-80
2021/11/06 07:59:26;;;;;;;9.83;8.70;;;;;;;8.29;69.68;99970.22;2099719;84;21118;-79
2021/11/06 08:02:26;;;;;;;12.23;8.33;;;;;;;8.31;69.46;99975.95;2100018;84;20984;-80
2021/11/06 08:05:27;;;;;;;10.60;7.83;;;;;;;8.35;69.26;99964.39;2098768;84;21039;-81
2021/11/06 08:08:27;;;;;;;10.77;8.57;;;;;;;8.46;69.60;99963.09;2099911;85;21004;-81
2021/11/06 08:11:28;;;;;;;10.30;7.63;;;;;;;8.60;69.51;99970.59;2099689;84;21031;-79
2021/11/06 08:14:28;;;;;;;8.70;7.67;;;;;;;8.81;68.85;99966.62;2056427;84;21395;-78
2021/11/06 08:17:29;;;;;;;10.17;8.50;;;;;;;8.93;68.95;99965.77;2055922;87;21388;-79
2021/11/06 08:20:29;;;;;;;10.30;7.67;;;;;;;9.05;68.13;99966.61;2055327;87;20972;-79
2021/11/06 08:23:30;;;;;;;11.30;7.70;;;;;;;9.16;67.66;99974.81;2056210;87;20983;-81
2021/11/06 08:26:30;;;;;;;9.63;8.10;;;;;;;9.21;67.48;99971.53;2055690;87;20976;-81
2021/11/06 08:29:31;;;;;;;11.07;6.73;;;;;;;9.39;67.44;99974.30;2055203;87;20983;-81
2021/11/06 08:32:31;;;;;;;11.00;6.47;;;;;;;9.58;67.08;99978.92;2055777;87;21342;-80
2021/11/06 08:35:32;;;;;;;6.60;5.90;;;;;;;9.67;65.59;99978.77;2056076;87;21403;-79
2021/11/06 08:38:38;;;;;;;6.87;6.27;;;;;;;9.75;65.55;99983.81;2056110;87;21023;-81
2021/11/06 08:41:39;;;;;;;6.70;6.00;;;;;;;9.83;63.92;99987.56;2055598;87;20952;-80
2021/11/06 08:44:39;;;;;;;7.60;5.87;;;;;;;9.88;64.56;99984.69;2054903;87;21004;-80
2021/11/06 08:47:41;;;;;;;6.67;5.83;;;;;;;9.86;63.81;99978.12;2055768;87;20995;-82
2021/11/06 08:50:42;;;;;;;6.97;5.73;;;;;;;9.87;64.58;99988.13;2055988;87;21003;-80
2021/11/06 08:53:45;;;;;;;10.93;6.17;;;;;;;10.00;63.44;99995.94;2056748;87;20980;-80
2021/11/06 08:56:45;;;;;;;6.17;5.50;;;;;;;9.99;63.98;99988.52;2056057;87;21080;-80
2021/11/06 08:59:48;;;;;;;7.83;5.90;;;;;;;10.06;63.06;99992.22;2056156;87;21047;-80
2021/11/06 09:02:47;;;;;;;8.83;5.80;;;;;;;10.00;63.76;99986.38;2055424;87;20988;-80
2021/11/06 09:05:52;;;;;;;8.03;5.87;;;;;;;10.02;63.30;99988.63;2055495;87;21039;-79
2021/11/06 09:08:52;;;;;;;7.03;5.53;;;;;;;9.97;63.74;99982.80;2055686;87;20948;-79
2021/11/06 09:11:54;;;;;;;7.23;6.33;;;;;;;9.84;62.17;99991.52;2057118;85;21015;-79
2021/11/06 09:14:54;;;;;;;6.53;5.40;;;;;;;9.74;63.69;99989.87;2098379;84;21068;-79
2021/11/06 09:17:55;;;;;;;13.67;6.07;;;;;;;9.68;63.25;99990.97;2099545;84;21090;-80
2021/11/06 09:56:20;;;;;;;5.90;4.50;;;;;;;10.56;61.58;99972.97;2238818;79;22548;-78
2021/11/06 09:59:21;;;;;;;5.03;4.07;;;;;;;10.59;60.80;99969.14;2189158;81;21019;-78
2021/11/06 10:02:21;;;;;;;6.30;5.17;;;;;;;10.64;58.50;99975.80;2189553;81;21407;-79
2021/11/06 10:05:22;;;;;;;5.63;4.40;;;;;;;10.66;59.48;99961.95;2189984;81;21036;-80
2021/11/06 10:08:22;;;;;;;7.87;4.70;;;;;;;10.71;59.58;99959.47;2189298;81;21024;-77
2021/11/06 10:11:23;;;;;;;6.90;4.77;;;;;;;10.77;57.86;99953.13;2188994;81;21001;-78
2021/11/06 10:14:24;;;;;;;7.33;4.43;;;;;;;10.80;58.53;99951.48;2189647;81;21072;-78
2021/11/06 10:17:26;;;;;;;7.90;4.90;;;;;;;10.76;57.38;99963.10;2190134;81;20956;-80
2021/11/06 10:20:28;;;;;;;5.50;4.40;;;;;;;10.75;57.30;99956.11;2189259;81;21438;-79
2021/11/06 10:23:28;;;;;;;4.90;4.40;;;;;;;10.71;57.11;99956.86;2189055;81;21352;-80
2021/11/06 10:26:29;;;;;;;9.43;5.07;;;;;;;10.71;57.84;99962.97;2189602;81;20976;-78
2021/11/06 10:29:29;;;;;;;7.65;4.80;;;;;;;10.71;57.51;99964.70;2189548;81;20980;-80
2021/11/06 10:32:30;;;;;;;5.43;4.93;;;;;;;10.76;57.57;99960.48;2188805;81;21391;-78
2021/11/06 10:35:30;;;;;;;7.10;5.27;;;;;;;10.74;56.46;99963.06;2188470;81;20993;-79
2021/11/06 10:38:31;;;;;;;7.80;5.55;;;;;;;10.76;57.45;99964.41;2188842;81;20917;-79
2021/11/06 10:41:31;;;;;;;7.65;5.67;;;;;;;10.79;57.32;99956.66;2188995;81;20949;-78
2021/11/06 10:44:32;;;;;;;6.73;5.30;;;;;;;10.81;57.44;99948.03;2189095;81;20964;-79
2021/11/06 10:47:32;;;;;;;6.63;5.30;;;;;;;10.85;57.65;99940.73;2189891;81;21327;-80
2021/11/06 10:50:33;;;;;;;9.27;5.50;;;;;;;10.97;58.17;99935.39;2189713;81;20956;-79
2021/11/06 10:53:33;;;;;;;7.70;5.83;;;;;;;11.02;58.01;99940.32;2189513;81;21071;-81
2021/11/06 10:56:34;;;;;;;8.58;6.30;;;;;;;11.04;56.85;99939.52;2172834;81;21059;-80
2021/11/06 10:59:35;;;;;;;7.20;5.75;;;;;;;11.10;57.85;99938.38;2173634;81;21017;-79
2021/11/06 11:02:35;;;;;;;5.70;4.87;;;;;;;11.16;57.36;99927.20;2172310;81;20949;-79
2021/11/06 11:05:36;;;;;;;7.63;5.40;;;;;;;11.15;56.45;99933.28;2172890;81;20992;-78
2021/11/06 11:08:36;;;;;;;6.93;4.87;;;;;;;11.12;56.58;99931.89;2172069;81;21403;-79
2021/11/06 11:11:37;;;;;;;7.87;5.60;;;;;;;11.07;57.09;99934.80;2171202;81;20977;-79
2021/11/06 11:14:37;;;;;;;7.10;5.92;;;;;;;11.12;57.42;99930.58;2171716;81;20992;-79
2021/11/06 11:17:38;;;;;;;8.70;4.87;;;;;;;11.15;57.28;99930.66;2171851;81;20968;-80
2021/11/06 11:20:39;;;;;;;6.47;5.62;;;;;;;11.11;57.33;99931.00;2171609;81;20940;-78
2021/11/06 11:23:40;;;;;;;6.07;5.30;;;;;;;11.02;57.07;99931.17;2171836;81;20989;-78
2021/11/06 11:26:40;;;;;;;6.67;5.97;;;;;;;11.02;57.28;99928.56;2171709;81;20976;-79
2021/11/06 11:29:42;;;;;;;6.90;4.90;;;;;;;11.01;57.64;99926.80;2172221;82;20925;-77
2021/11/06 11:32:42;;;;;;;8.75;5.20;;;;;;;11.04;56.27;99920.34;2172014;82;20967;-79
2021/11/06 11:35:43;;;;;;;6.97;5.20;;;;;;;11.04;57.31;99925.58;2171905;81;21372;-78
2021/11/06 11:38:44;;;;;;;7.12;5.58;;;;;;;11.06;57.11;99923.47;2172766;81;21324;-82
2021/11/06 11:41:46;;;;;;;6.08;4.90;;;;;;;11.08;57.05;99924.81;2172904;82;20933;-80
2021/11/06 11:44:46;;;;;;;5.87;4.42;;;;;;;11.17;57.41;99915.48;2173178;81;20960;-79
2021/11/06 11:47:47;;;;;;;7.37;4.97;;;;;;;11.21;56.85;99914.27;2173217;82;20961;-80
2021/11/06 11:50:48;;;;;;;5.22;4.33;;;;;;;11.18;56.29;99916.38;2172697;82;21353;-78
2021/11/06 11:53:48;;;;;;;5.10;4.47;;;;;;;11.22;56.61;99907.77;2172972;82;21044;-79
2021/11/06 11:56:49;;;;;;;5.72;4.62;;;;;;;11.23;56.07;99909.53;2171778;81;20980;-79
2021/11/06 11:59:49;;;;;;;5.78;4.33;;;;;;;11.19;56.85;99910.30;2171507;82;20940;-78
2021/11/06 12:02:50;;;;;;;6.00;4.33;;;;;;;11.23;56.81;99901.70;2172455;81;21016;-78
2021/11/06 12:05:50;;;;;;;5.28;4.42;;;;;;;11.27;56.79;99898.35;2172220;81;21352;-79
2021/11/06 12:08:51;;;;;;;5.05;4.55;;;;;;;11.29;55.81;99908.42;2172908;81;20937;-78
2021/11/06 12:11:51;;;;;;;4.05;3.65;;;;;;;11.36;56.47;99897.70;2171815;82;21392;-77
2021/11/06 12:14:52;;;;;;;5.05;4.08;;;;;;;11.41;56.25;99896.97;2172307;81;21364;-78
2021/11/06 12:17:52;;;;;;;4.42;3.22;;;;;;;11.44;56.41;99893.55;2172489;81;21004;-78
2021/11/06 12:20:53;;;;;;;5.80;3.60;;;;;;;11.41;55.69;99897.39;2172798;81;20925;-78
2021/11/06 12:23:53;;;;;;;7.55;4.17;;;;;;;11.41;55.94;99890.86;2172608;82;21009;-80
2021/11/06 12:26:54;;;;;;;8.05;3.83;;;;;;;11.44;54.89;99895.73;2172232;81;20953;-78
2021/11/06 12:29:54;;;;;;;5.42;3.60;;;;;;;11.52;55.22;99884.16;2171372;81;20929;-78
2021/11/06 12:32:55;;;;;;;6.20;3.85;;;;;;;11.59;55.21;99883.47;2171886;81;21400;-79
2021/11/06 12:35:55;;;;;;;7.42;4.67;;;;;;;11.52;55.28;99890.70;2171856;81;20999;-78
2021/11/06 12:38:56;;;;;;;7.87;4.70;;;;;;;11.32;54.46;99887.59;2171242;81;20953;-77
2021/11/06 12:41:56;;;;;;;8.08;5.45;;;;;;;11.09;54.19;99894.80;2171791;81;20948;-78
2021/11/06 12:44:57;;;;;;;5.62;4.25;;;;;;;10.92;55.11;99893.89;2172939;81;20934;-79
2021/11/06 12:47:58;;;;;;;7.15;4.67;;;;;;;10.79;55.16;99894.86;2172745;81;21332;-79
2021/11/06 12:50:58;;;;;;;8.80;5.33;;;;;;;10.78;56.34;99890.91;2172797;81;20913;-78
2021/11/06 12:53:59;;;;;;;8.00;5.80;;;;;;;10.78;55.94;99895.70;2172531;82;21313;-78
2021/11/06 12:57:01;;;;;;;9.90;5.50;;;;;;;10.73;56.60;99885.55;2172732;82;21421;-78
2021/11/06 13:00:02;;;;;;;9.37;6.50;;;;;;;10.74;57.03;99883.83;2172525;82;20951;-78
2021/11/06 13:03:03;;;;;;;12.80;7.07;;;;;;;10.74;57.23;99887.33;2172507;81;20980;-78
2021/11/06 13:06:03;;;;;;;26.80;16.57;;;;;;;10.79;57.18;99883.11;2171836;81;20996;-78
2021/11/06 13:09:04;;;;;;;9.53;6.00;;;;;;;10.82;57.11;99881.89;2172392;81;20952;-77
2021/11/06 13:12:04;;;;;;;16.37;9.77;;;;;;;10.80;56.91;99879.66;2172399;82;21380;-78
2021/11/06 13:15:05;;;;;;;17.37;9.47;;;;;;;10.80;57.02;99873.55;2172313;81;20969;-79
2021/11/06 13:18:06;;;;;;;19.93;12.47;;;;;;;10.80;56.98;99867.02;2171739;82;20972;-78
2021/11/06 13:21:06;;;;;;;15.53;8.40;;;;;;;10.81;56.81;99872.70;2171324;81;21736;-78
2021/11/06 13:24:07;;;;;;;15.53;7.50;;;;;;;10.78;56.32;99871.31;2170838;81;20949;-78
2021/11/06 13:27:07;;;;;;;10.10;5.87;;;;;;;10.77;56.85;99873.47;2170980;81;20957;-78
2021/11/06 13:30:08;;;;;;;12.63;7.60;;;;;;;10.74;56.42;99871.66;2170666;81;21000;-78
2021/11/06 13:33:08;;;;;;;14.53;8.83;;;;;;;10.69;56.70;99881.09;2170670;81;20992;-79
2021/11/06 13:36:09;;;;;;;13.83;8.17;;;;;;;10.62;56.38;99884.38;2172177;82;20988;-79
2021/11/06 13:39:12;;;;;;;12.20;6.67;;;;;;;10.56;56.32;99875.06;2172337;81;20980;-79
2021/11/06 13:42:12;;;;;;;12.97;7.03;;;;;;;10.53;56.13;99877.59;2172507;82;20960;-78
2021/11/06 13:45:13;;;;;;;14.00;8.00;;;;;;;10.54;56.48;99881.97;2172853;81;20936;-78
2021/11/06 13:48:13;;;;;;;9.13;5.43;;;;;;;10.53;57.40;99877.59;2173069;81;20964;-78
2021/11/06 13:51:14;;;;;;;11.57;6.87;;;;;;;10.59;57.46;99874.27;2172511;82;20948;-78
2021/11/06 13:54:15;;;;;;;9.83;6.13;;;;;;;10.65;57.41;99879.66;2172766;82;21035;-80
2021/11/06 13:57:16;;;;;;;19.37;11.03;;;;;;;10.65;57.43;99875.73;2171927;82;21387;-78
2021/11/06 14:00:17;;;;;;;9.63;6.03;;;;;;;10.71;57.20;99872.88;2172226;81;20985;-78
2021/11/06 14:03:18;;;;;;;12.03;6.53;;;;;;;10.76;56.52;99868.66;2171835;81;21339;-77
2021/11/06 14:06:19;;;;;;;18.20;9.40;;;;;;;10.75;56.47;99862.98;2172067;82;20956;-77
2021/11/06 14:09:19;;;;;;;28.67;13.03;;;;;;;10.68;56.88;99858.43;2172067;82;20944;-78
2021/11/06 14:12:19;;;;;;;17.60;9.70;;;;;;;10.56;57.13;99857.21;2172514;81;20941;-77
2021/11/06 14:15:20;;;;;;;29.23;14.50;;;;;;;10.45;57.32;99856.91;2172112;81;21399;-77
2021/11/06 14:18:20;;;;;;;22.03;11.73;;;;;;;10.32;57.62;99853.45;2172045;81;21007;-78
2021/11/06 14:21:23;;;;;;;21.17;10.07;;;;;;;10.22;57.83;99858.82;2172697;81;20961;-78
2021/11/06 14:24:23;;;;;;;13.47;7.90;;;;;;;10.10;57.32;99867.14;2172494;81;21015;-77
2021/11/06 14:27:24;;;;;;;14.37;9.03;;;;;;;9.97;57.53;99864.12;2172233;81;21349;-78
2021/11/06 14:30:24;;;;;;;24.37;14.70;;;;;;;9.84;58.24;99855.92;2172680;81;20988;-78
2021/11/06 14:33:25;;;;;;;33.67;16.67;;;;;;;9.74;58.43;99856.47;2172763;81;20949;-78
2021/11/06 14:36:25;;;;;;;41.83;22.60;;;;;;;9.62;58.96;99849.99;2172612;81;20949;-78
2021/11/06 14:39:26;;;;;;;45.63;21.83;;;;;;;9.50;59.11;99864.79;2172552;81;20953;-77
2021/11/06 14:42:27;;;;;;;31.80;16.93;;;;;;;9.37;59.59;99868.72;2172813;81;20949;-78
2021/11/06 14:45:27;;;;;;;29.53;15.33;;;;;;;9.24;59.99;99860.91;2173016;81;20948;-78
2021/11/06 14:48:28;;;;;;;28.07;15.33;;;;;;;9.14;60.28;99864.47;2172739;81;21379;-78